Time;durP1;ratioP1;P1;durP2;ratioP2;P2;SDS_P1;SDS_P2;PMS_P1;PMS_P2;Temp;Humidity;BMP_temperature;BMP_pressure;BME280_temperature;BME280_humidity;BME280_pressure;Samples;Min_cycle;Max_cycle;Signal;HPM_P1;HPM_P2
2022/11/14 00:08:21;;;;;;;65.32;39.83;;;;;;;7.50;91.73;101655.19;4929572;28;20043;-76
2022/11/14 00:19:38;;;;;;;62.28;38.45;;;;;;;7.41;92.26;101644.97;4932997;29;20128;-74
2022/11/14 00:48:16;;;;;;;64.35;38.10;;;;;;;7.33;93.87;101615.50;4930219;29;20051;-74
2022/11/14 00:59:28;;;;;;;66.53;40.72;;;;;;;7.41;91.97;101600.44;4923625;28;20125;-74
2022/11/14 01:01:55;;;;;;;69.55;41.42;;;;;;;7.42;92.35;101604.75;4925702;28;20102;-74
2022/11/14 01:08:50;;;;;;;73.32;41.83;;;;;;;7.14;94.44;101593.41;4921237;28;20136;-74
2022/11/14 01:11:21;;;;;;;69.68;41.90;;;;;;;7.09;94.47;101589.16;5009226;28;20056;-74
2022/11/14 01:13:48;;;;;;;72.45;42.38;;;;;;;7.08;94.69;101592.69;4916834;28;20044;-74
2022/11/14 01:16:16;;;;;;;66.32;39.38;;;;;;;7.19;93.95;101592.34;4926650;28;20059;-75
2022/11/14 01:23:34;;;;;;;71.25;41.97;;;;;;;7.21;93.17;101581.84;4924036;28;20150;-76
2022/11/14 01:26:05;;;;;;;71.25;42.90;;;;;;;7.14;94.09;101569.81;4930231;28;20063;-75
2022/11/14 01:41:43;;;;;;;70.57;41.83;;;;;;;7.04;94.33;101551.78;4926268;29;20053;-75
2022/11/14 01:53:01;;;;;;;69.65;40.30;;;;;;;7.09;93.44;101549.00;4926824;28;20047;-74
2022/11/14 01:55:28;;;;;;;78.65;42.63;;;;;;;7.11;92.61;101541.97;4922292;29;20142;-75
2022/11/14 01:57:56;;;;;;;73.07;42.47;;;;;;;7.04;93.08;101533.44;4920118;28;20048;-74
2022/11/14 02:17:34;;;;;;;73.40;42.67;;;;;;;7.08;94.18;101518.50;4924343;29;20074;-74
2022/11/14 02:28:39;;;;;;;80.43;44.15;;;;;;;7.10;95.27;101504.44;4928512;29;20046;-74
2022/11/14 02:31:07;;;;;;;80.55;42.33;;;;;;;7.14;94.95;101501.75;4915684;28;20141;-74
2022/11/14 02:46:47;;;;;;;77.22;42.60;;;;;;;7.10;94.52;101478.25;4899150;28;20115;-73
2022/11/14 03:02:33;;;;;;;79.47;43.60;;;;;;;7.25;93.95;101466.47;4922464;28;20534;-74
2022/11/14 03:09:19;;;;;;;68.63;39.35;;;;;;;7.16;94.50;101464.16;4924714;29;20051;-74
2022/11/14 03:20:52;;;;;;;76.20;41.03;;;;;;;7.19;93.94;101457.94;4923056;28;20097;-74
2022/11/14 03:32:08;;;;;;;78.53;42.40;;;;;;;7.06;95.43;101454.84;4925825;28;20137;-73
2022/11/14 04:43:27;;;;;;;91.00;45.78;;;;;;;6.80;96.00;101382.38;4931002;28;20170;-74
2022/11/14 06:54:29;;;;;;;82.68;40.97;;;;;;;6.82;96.09;101352.63;4911660;28;20062;-74
2022/11/14 06:56:57;;;;;;;79.10;39.60;;;;;;;6.82;96.50;101346.53;4910364;28;20052;-74
2022/11/14 06:59:24;;;;;;;79.88;39.42;;;;;;;6.82;95.78;101352.63;4918265;28;20056;-74
2022/11/14 07:01:52;;;;;;;81.28;41.22;;;;;;;6.82;95.85;101342.16;4921229;28;20591;-74
2022/11/14 07:04:20;;;;;;;90.45;43.50;;;;;;;6.80;95.90;101353.59;4940642;28;20102;-74
2022/11/14 07:06:47;;;;;;;84.85;43.53;;;;;;;6.70;96.38;101353.00;4919177;28;20055;-74
2022/11/14 07:09:15;;;;;;;84.65;43.15;;;;;;;6.59;97.53;101350.72;4925548;28;20055;-74
2022/11/14 07:11:45;;;;;;;89.47;43.40;;;;;;;6.58;97.96;101353.41;4919660;28;20464;-74
2022/11/14 07:14:13;;;;;;;92.13;45.20;;;;;;;6.54;98.34;101352.63;4917248;28;20051;-74
2022/11/14 07:16:40;;;;;;;85.03;42.35;;;;;;;6.62;97.46;101360.25;4928914;29;20051;-74
2022/11/14 07:19:08;;;;;;;93.78;45.65;;;;;;;6.65;97.32;101360.16;4917232;29;20535;-74
2022/11/14 07:21:36;;;;;;;88.32;41.38;;;;;;;6.69;97.26;101363.53;4918509;28;20064;-74
2022/11/14 07:24:04;;;;;;;75.22;40.45;;;;;;;6.71;97.05;101375.69;4923096;28;20106;-74
2022/11/14 07:26:31;;;;;;;80.57;41.67;;;;;;;6.78;96.74;101358.00;4935252;28;20056;-74
2022/11/14 07:28:59;;;;;;;88.07;44.40;;;;;;;6.82;96.64;101344.78;4921418;28;20984;-74
2022/11/14 07:31:29;;;;;;;91.10;44.03;;;;;;;6.80;96.04;101349.22;4928604;28;20060;-73
2022/11/14 07:33:57;;;;;;;84.50;42.88;;;;;;;6.83;95.60;101349.09;4915622;28;20059;-75
2022/11/14 07:36:24;;;;;;;86.20;43.30;;;;;;;6.76;95.99;101351.97;4921758;28;20098;-73
2022/11/14 07:38:52;;;;;;;80.60;40.50;;;;;;;6.75;96.53;101340.63;4919472;28;20137;-74
2022/11/14 07:41:19;;;;;;;88.38;43.05;;;;;;;6.78;96.13;101335.31;4918903;28;20096;-74
2022/11/14 07:43:47;;;;;;;85.72;41.83;;;;;;;6.69;96.73;101337.38;4923912;28;20051;-74
2022/11/14 07:46:16;;;;;;;89.55;42.58;;;;;;;6.69;96.81;101334.75;4920239;29;20056;-75
2022/11/14 07:48:44;;;;;;;83.97;43.05;;;;;;;6.65;97.60;101320.91;4923708;28;20578;-74
2022/11/14 07:51:17;;;;;;;83.90;42.30;;;;;;;6.65;97.62;101330.50;4925117;28;20141;-74
2022/11/14 07:53:45;;;;;;;88.43;42.47;;;;;;;6.75;96.90;101335.41;4919473;28;20044;-75
2022/11/14 07:56:12;;;;;;;81.10;41.80;;;;;;;6.79;96.57;101328.31;4922018;28;20051;-74
2022/11/14 07:58:40;;;;;;;90.47;41.67;;;;;;;6.81;96.41;101334.38;4919554;28;20052;-74
2022/11/14 08:01:10;;;;;;;87.30;41.53;;;;;;;6.84;95.65;101337.75;4933491;28;20060;-75
2022/11/14 08:03:38;;;;;;;90.32;43.10;;;;;;;6.82;96.24;101333.47;4912907;28;20110;-74
2022/11/14 08:06:14;;;;;;;87.13;42.97;;;;;;;6.89;95.87;101331.47;4920456;28;20146;-74
2022/11/14 08:08:41;;;;;;;96.38;42.72;;;;;;;6.93;95.47;101331.34;4927355;28;20051;-75
2022/11/14 08:11:09;;;;;;;91.30;43.38;;;;;;;6.91;96.13;101330.53;4935137;28;20064;-74
2022/11/14 08:13:36;;;;;;;84.60;42.15;;;;;;;6.98;95.47;101328.56;4999637;28;20107;-75
2022/11/14 08:16:06;;;;;;;87.97;41.13;;;;;;;7.00;95.54;101327.63;4929944;28;20062;-75
2022/11/14 08:18:39;;;;;;;89.27;42.00;;;;;;;7.04;94.98;101329.25;4917848;28;20095;-74
2022/11/14 08:21:07;;;;;;;94.07;43.28;;;;;;;7.03;95.28;101326.69;4920900;28;20459;-74
2022/11/14 08:23:35;;;;;;;93.55;43.03;;;;;;;6.99;96.12;101322.44;4917004;28;20060;-74
2022/11/14 08:26:03;;;;;;;81.88;40.90;;;;;;;7.10;96.00;101321.16;4917197;28;20094;-72
2022/11/14 08:28:30;;;;;;;79.05;38.53;;;;;;;7.16;95.49;101327.09;4919649;28;20059;-73
2022/11/14 08:31:02;;;;;;;84.22;40.55;;;;;;;7.16;95.48;101321.88;4917261;28;21922;-73
2022/11/14 08:33:30;;;;;;;80.45;39.70;;;;;;;7.18;95.19;101318.31;4918417;28;20060;-73
2022/11/14 08:36:02;;;;;;;77.38;38.00;;;;;;;7.23;95.07;101320.75;4919711;29;20056;-73
2022/11/14 08:38:30;;;;;;;76.90;36.63;;;;;;;7.24;94.66;101322.47;4928252;28;20059;-73
2022/11/14 08:41:02;;;;;;;86.80;41.17;;;;;;;7.32;94.37;101315.22;4916222;29;20059;-74
2022/11/14 08:43:30;;;;;;;81.15;40.22;;;;;;;7.43;94.30;101317.44;4900223;28;20064;-74
2022/11/14 08:46:02;;;;;;;82.78;41.50;;;;;;;7.50;93.76;101319.81;4921982;28;20139;-75
2022/11/14 08:48:30;;;;;;;86.32;42.35;;;;;;;7.47;93.20;101316.44;4921917;28;20056;-74
2022/11/14 08:51:06;;;;;;;81.97;40.55;;;;;;;7.47;93.76;101308.56;4919572;28;20550;-73
2022/11/14 08:53:33;;;;;;;86.20;41.08;;;;;;;7.41;94.27;101319.28;4919248;28;20056;-74
2022/11/14 08:56:01;;;;;;;89.03;42.85;;;;;;;7.32;94.77;101309.97;4920186;28;20067;-74
2022/11/14 08:58:30;;;;;;;74.65;37.00;;;;;;;7.40;95.00;101312.34;4918985;28;20047;-74
2022/11/14 09:01:02;;;;;;;75.85;38.20;;;;;;;7.52;94.15;101309.28;4943791;28;20056;-73
2022/11/14 09:03:30;;;;;;;76.40;37.65;;;;;;;7.64;92.96;101308.00;4929918;28;20442;-74
2022/11/14 09:05:58;;;;;;;73.25;37.22;;;;;;;7.70;92.40;101305.13;4941708;28;20052;-74
2022/11/14 09:08:27;;;;;;;69.47;35.20;;;;;;;7.62;92.68;101302.81;4906214;28;20520;-74
2022/11/14 09:10:59;;;;;;;75.68;36.17;;;;;;;7.66;92.79;101309.66;4916520;28;20056;-73
2022/11/14 09:13:35;;;;;;;73.15;36.05;;;;;;;7.68;93.02;101299.97;4920136;28;20066;-73
2022/11/14 09:16:02;;;;;;;71.05;35.83;;;;;;;7.78;92.29;101300.47;4920407;29;20064;-74
2022/11/14 09:18:30;;;;;;;66.68;34.17;;;;;;;7.89;92.35;101300.09;4913110;28;20052;-74
2022/11/14 09:21:00;;;;;;;71.15;37.40;;;;;;;7.97;91.66;101306.78;4937570;28;20090;-74
2022/11/14 09:23:28;;;;;;;75.07;36.95;;;;;;;8.06;91.19;101295.94;4928633;29;20144;-74
2022/11/14 09:25:57;;;;;;;71.57;36.10;;;;;;;8.14;91.14;101293.00;4937025;28;20032;-74
2022/11/14 09:28:24;;;;;;;71.90;37.67;;;;;;;8.22;90.94;101292.72;4925563;28;20105;-74
2022/11/14 09:30:52;;;;;;;74.68;37.30;;;;;;;8.33;90.80;101296.66;4924658;29;20056;-74
2022/11/14 09:33:19;;;;;;;71.20;36.78;;;;;;;8.43;90.57;101284.06;4929244;28;20086;-74
2022/11/14 09:35:47;;;;;;;77.65;36.60;;;;;;;8.45;89.06;101287.47;4926541;28;20076;-74
2022/11/14 09:38:14;;;;;;;64.80;34.08;;;;;;;8.49;89.05;101286.44;4923787;28;20051;-75
2022/11/14 09:40:56;;;;;;;69.30;34.40;;;;;;;8.52;89.04;101285.47;4923152;28;20114;-74
2022/11/14 09:43:50;;;;;;;65.25;33.22;;;;;;;8.56;88.36;101293.16;4925262;28;20520;-74
2022/11/14 09:46:22;;;;;;;71.35;34.17;;;;;;;8.60;88.05;101294.75;4918566;28;20452;-75
2022/11/14 09:48:51;;;;;;;70.47;33.22;;;;;;;8.59;88.26;101286.91;4915287;28;20063;-75
2022/11/14 09:51:22;;;;;;;70.78;35.97;;;;;;;8.72;88.08;101285.50;4923658;28;20711;-75
2022/11/14 09:54:05;;;;;;;68.85;35.75;;;;;;;8.80;87.33;101286.06;4935898;28;20145;-76
2022/11/14 09:56:33;;;;;;;61.55;32.60;;;;;;;8.91;86.95;101282.97;4932304;28;20056;-75
2022/11/14 09:59:00;;;;;;;59.65;33.38;;;;;;;8.97;86.85;101274.00;4934109;29;20070;-74
2022/11/14 10:01:44;;;;;;;65.15;31.90;;;;;;;9.01;86.64;101270.34;4915063;28;20118;-73
2022/11/14 10:04:47;;;;;;;67.45;34.05;;;;;;;9.06;86.14;101268.38;4918639;28;20051;-73
2022/11/14 10:07:53;;;;;;;62.90;32.50;;;;;;;9.06;86.48;101263.13;4917868;28;20055;-73
2022/11/14 10:10:55;;;;;;;63.78;32.83;;;;;;;9.12;86.33;101262.84;4914798;28;20178;-73
2022/11/14 10:13:47;;;;;;;59.47;31.73;;;;;;;9.17;85.55;101262.66;4920836;28;20055;-74
2022/11/14 10:17:00;;;;;;;61.25;31.65;;;;;;;9.21;85.71;101256.34;4923804;28;20055;-74
2022/11/14 10:19:54;;;;;;;55.65;29.10;;;;;;;9.34;85.31;101244.38;4915462;28;20056;-74
2022/11/14 10:22:41;;;;;;;62.33;33.33;;;;;;;9.45;84.33;101236.00;4918003;28;20168;-74
2022/11/14 10:25:20;;;;;;;59.10;31.48;;;;;;;9.53;84.44;101233.91;4912059;28;20056;-72
2022/11/14 10:28:18;;;;;;;54.15;30.08;;;;;;;9.61;84.73;101237.91;4915889;28;20063;-73
2022/11/14 10:30:56;;;;;;;59.95;30.58;;;;;;;9.73;83.79;101249.66;4917905;29;20146;-73
2022/11/14 10:33:52;;;;;;;58.92;30.42;;;;;;;9.72;83.63;101240.03;4920736;28;20125;-73
2022/11/14 10:36:58;;;;;;;64.28;32.90;;;;;;;9.80;83.72;101240.53;4939731;28;20048;-73
2022/11/14 10:39:43;;;;;;;62.92;33.40;;;;;;;9.81;82.82;101236.13;4901254;28;20056;-74
2022/11/14 10:42:14;;;;;;;62.83;32.55;;;;;;;9.84;82.72;101233.38;4914149;28;20086;-74
2022/11/14 10:44:53;;;;;;;58.63;29.90;;;;;;;9.95;82.73;101232.84;4916195;28;20098;-74
2022/11/14 10:47:22;;;;;;;55.92;30.90;;;;;;;10.14;82.35;101231.94;4933778;28;20070;-74
2022/11/14 10:49:54;;;;;;;57.25;29.85;;;;;;;10.36;81.60;101223.91;4981592;28;20056;-73
2022/11/14 10:52:25;;;;;;;53.17;27.77;;;;;;;10.60;78.92;101213.94;4916317;29;20052;-74
2022/11/14 10:54:59;;;;;;;60.92;32.85;;;;;;;10.78;78.44;101212.16;4924242;28;20048;-73
2022/11/14 10:57:27;;;;;;;55.30;30.00;;;;;;;10.87;77.62;101201.16;4927442;28;20067;-73
2022/11/14 10:59:54;;;;;;;50.40;29.92;;;;;;;10.99;77.62;101209.38;4923854;28;20816;-74
2022/11/14 11:02:22;;;;;;;58.17;30.40;;;;;;;11.12;77.20;101206.03;4919573;28;20102;-73
2022/11/14 11:04:50;;;;;;;48.78;26.98;;;;;;;11.27;76.51;101201.75;4917052;28;20547;-74
2022/11/14 11:13:14;;;;;;;53.13;32.05;;;;;;;11.89;74.06;101189.63;4917792;28;20059;-73
2022/11/14 11:15:42;;;;;;;53.03;31.67;;;;;;;12.10;72.81;101184.91;4931637;29;20106;-72
2022/11/14 11:18:25;;;;;;;54.15;32.70;;;;;;;12.29;71.23;101178.59;4924477;28;20064;-73
2022/11/14 11:21:08;;;;;;;52.35;30.45;;;;;;;12.43;71.09;101186.59;4919290;29;20055;-72
2022/11/14 11:23:53;;;;;;;50.70;29.15;;;;;;;12.71;70.17;101179.72;4912329;28;20569;-75
2022/11/14 11:26:27;;;;;;;52.92;29.80;;;;;;;12.89;69.90;101178.59;4920029;28;20055;-73
2022/11/14 11:29:09;;;;;;;50.38;28.70;;;;;;;13.11;68.40;101178.19;4918258;28;20072;-74
2022/11/14 11:31:57;;;;;;;52.53;29.95;;;;;;;13.15;67.02;101175.25;4920199;28;20060;-73
2022/11/14 11:34:31;;;;;;;47.70;28.20;;;;;;;13.29;66.91;101176.22;4927450;28;20044;-74
2022/11/14 11:37:08;;;;;;;52.65;27.85;;;;;;;13.42;67.03;101169.25;4916169;28;20070;-72
2022/11/14 11:39:41;;;;;;;48.92;26.60;;;;;;;13.75;66.52;101160.13;4929161;28;20118;-72
2022/11/14 11:42:21;;;;;;;49.95;30.35;;;;;;;14.05;64.82;101149.34;4920539;28;20157;-73
2022/11/14 11:44:50;;;;;;;47.72;29.10;;;;;;;14.33;63.64;101143.94;4918203;28;20654;-72
2022/11/14 11:47:18;;;;;;;44.78;28.45;;;;;;;14.56;63.60;101141.59;4948553;28;20520;-72
2022/11/14 11:49:50;;;;;;;48.08;29.13;;;;;;;14.83;63.13;101145.03;4933045;28;20118;-73
2022/11/14 11:52:26;;;;;;;43.63;27.85;;;;;;;15.18;61.27;101141.75;4915598;28;20953;-73
2022/11/14 11:55:13;;;;;;;40.45;26.58;;;;;;;15.58;59.83;101138.91;4914562;28;20063;-73
2022/11/14 11:58:03;;;;;;;42.35;26.60;;;;;;;15.65;59.71;101135.72;4918500;28;20105;-73
2022/11/14 12:00:31;;;;;;;43.83;24.50;;;;;;;15.97;58.43;101139.66;4925628;28;20055;-73
2022/11/14 12:02:59;;;;;;;38.38;24.63;;;;;;;16.11;59.14;101121.75;4913989;28;20335;-73
2022/11/14 12:05:39;;;;;;;35.13;23.42;;;;;;;16.37;59.11;101126.94;4932461;28;20102;-73
2022/11/14 12:08:20;;;;;;;35.03;22.70;;;;;;;16.73;57.24;101133.09;4915394;28;20055;-73
2022/11/14 12:10:48;;;;;;;33.58;22.95;;;;;;;16.72;56.95;101129.59;4929917;29;20614;-74
2022/11/14 12:13:34;;;;;;;32.80;23.00;;;;;;;16.34;57.52;101122.69;4923013;28;20120;-74
2022/11/14 12:16:19;;;;;;;38.88;24.08;;;;;;;16.49;56.90;101126.00;4921953;28;20062;-74
2022/11/14 12:19:03;;;;;;;34.97;24.02;;;;;;;16.44;57.54;101123.69;4922139;28;20055;-73
2022/11/14 12:22:07;;;;;;;35.85;24.77;;;;;;;16.70;56.75;101129.66;4920870;28;20051;-74
2022/11/14 12:24:56;;;;;;;34.20;23.10;;;;;;;16.76;56.13;101131.06;4918028;28;20055;-73
2022/11/14 12:27:44;;;;;;;34.75;23.13;;;;;;;16.71;56.74;101136.69;4921007;28;20060;-74
2022/11/14 12:30:22;;;;;;;34.08;23.67;;;;;;;16.92;54.91;101134.22;4919148;28;20056;-75
2022/11/14 12:33:03;;;;;;;32.42;21.40;;;;;;;17.10;54.63;101129.28;4936780;28;20524;-74
2022/11/14 12:35:33;;;;;;;32.90;22.35;;;;;;;17.34;53.66;101133.66;4935058;28;20168;-74
2022/11/14 12:38:12;;;;;;;32.53;21.15;;;;;;;17.42;53.14;101136.53;4929471;28;20051;-75
2022/11/14 12:40:50;;;;;;;31.95;20.85;;;;;;;17.48;52.45;101125.41;4921880;28;20134;-73
2022/11/14 12:43:41;;;;;;;32.38;20.67;;;;;;;17.63;53.15;101123.31;4924550;28;20102;-75
2022/11/14 12:46:11;;;;;;;28.58;20.50;;;;;;;17.77;52.80;101117.75;4921289;28;20055;-75
2022/11/14 12:48:41;;;;;;;24.15;18.27;;;;;;;18.01;50.89;101124.72;4921207;28;20064;-74
2022/11/14 12:51:24;;;;;;;24.15;17.48;;;;;;;18.22;51.34;101123.78;4926755;28;20578;-75
2022/11/14 12:53:56;;;;;;;29.33;21.10;;;;;;;18.44;49.40;101114.84;4934819;28;20659;-74
2022/11/14 12:56:29;;;;;;;30.65;20.65;;;;;;;18.51;48.86;101122.31;4924969;28;20055;-75
2022/11/14 12:59:19;;;;;;;31.45;20.92;;;;;;;18.41;48.95;101111.56;4922280;28;20082;-75
2022/11/14 13:01:52;;;;;;;28.35;19.00;;;;;;;18.36;49.55;101111.97;4919590;28;20064;-74
2022/11/14 13:04:35;;;;;;;29.88;20.23;;;;;;;18.16;49.33;101110.97;4926348;28;20060;-73
2022/11/14 13:07:28;;;;;;;28.30;19.25;;;;;;;17.94;50.02;101116.38;4922044;28;20067;-74
2022/11/14 13:10:16;;;;;;;28.35;18.90;;;;;;;17.85;50.71;101115.31;4955179;28;20511;-73
2022/11/14 13:21:44;;;;;;;26.85;18.48;;;;;;;17.63;50.84;101104.69;4914314;28;20059;-74
2022/11/14 13:22:10;;;;;;;;;;;;;;;17.26;53.89;101114.78;4929713;28;20094;-73
2022/11/14 13:24:59;;;;;;;28.58;18.95;;;;;;;17.31;52.35;101105.47;4927858;28;19993;-73
2022/11/14 13:27:28;;;;;;;26.52;18.70;;;;;;;17.26;52.78;101107.66;4921487;28;20054;-74
2022/11/14 13:30:17;;;;;;;26.90;19.48;;;;;;;17.24;52.46;101101.59;4921515;28;20063;-74
2022/11/14 13:32:44;;;;;;;31.73;20.92;;;;;;;17.20;52.43;101106.31;4916512;28;20060;-74
2022/11/14 13:35:50;;;;;;;29.85;19.08;;;;;;;16.95;52.58;101104.72;4905813;28;20799;-73
2022/11/14 13:38:39;;;;;;;29.35;19.80;;;;;;;16.81;53.20;101099.66;4893534;28;20052;-74
2022/11/14 13:41:37;;;;;;;24.60;17.75;;;;;;;16.52;52.99;101093.84;4900112;28;20076;-73
2022/11/14 13:44:33;;;;;;;24.58;17.92;;;;;;;16.41;53.18;101086.72;4916813;28;20056;-74
2022/11/14 13:47:28;;;;;;;26.95;17.63;;;;;;;16.22;53.71;101082.94;4932154;28;20052;-74
2022/11/14 13:50:05;;;;;;;23.55;17.00;;;;;;;16.06;54.96;101080.56;4920985;28;20205;-74
2022/11/14 13:52:36;;;;;;;24.58;16.48;;;;;;;15.98;54.73;101080.28;4935742;28;20130;-73
2022/11/14 13:55:05;;;;;;;24.52;17.10;;;;;;;15.87;54.73;101075.78;4923146;28;20068;-73
2022/11/14 13:57:57;;;;;;;25.90;17.88;;;;;;;15.89;54.84;101068.53;4945919;28;20052;-73
2022/11/14 14:00:29;;;;;;;24.23;15.48;;;;;;;15.87;55.24;101066.00;4915302;28;20056;-75
2022/11/14 14:03:02;;;;;;;20.05;15.80;;;;;;;15.80;55.31;101071.88;4936119;28;20059;-75
2022/11/14 14:05:55;;;;;;;23.23;17.77;;;;;;;15.72;54.75;101066.28;4925015;28;20518;-75
2022/11/14 14:08:30;;;;;;;23.63;15.88;;;;;;;15.68;55.92;101063.00;4940767;28;20606;-73
2022/11/14 14:11:20;;;;;;;22.27;15.85;;;;;;;15.55;56.09;101070.97;4935957;28;20060;-74
2022/11/14 14:14:12;;;;;;;24.45;17.83;;;;;;;15.30;55.97;101065.75;4922131;28;20522;-73
2022/11/14 14:16:44;;;;;;;25.45;18.42;;;;;;;15.15;57.59;101063.22;4942093;28;20054;-73
2022/11/14 14:19:37;;;;;;;22.95;16.50;;;;;;;15.17;57.53;101066.63;4929962;28;20106;-74
2022/11/14 14:22:09;;;;;;;26.95;18.42;;;;;;;15.17;57.46;101055.16;4934104;28;20529;-74
2022/11/14 14:24:56;;;;;;;20.55;15.95;;;;;;;15.18;57.42;101057.72;4943667;28;20203;-73
2022/11/14 14:27:35;;;;;;;23.50;16.80;;;;;;;15.13;57.37;101062.50;4998820;28;20057;-74
2022/11/14 14:30:10;;;;;;;24.33;16.65;;;;;;;15.08;57.56;101058.47;4927729;28;20067;-74
2022/11/14 14:32:37;;;;;;;20.38;15.13;;;;;;;15.03;57.48;101047.34;4926125;28;20088;-74
2022/11/14 14:35:26;;;;;;;20.55;15.77;;;;;;;14.93;58.09;101060.41;4969411;28;20063;-74
2022/11/14 14:37:55;;;;;;;23.35;17.52;;;;;;;14.80;58.22;101043.66;4921097;28;20051;-74
2022/11/14 15:41:17;;;;;;;37.05;24.55;;;;;;;11.77;68.76;101015.31;4925375;28;20051;-73
2022/11/14 15:43:47;;;;;;;37.85;24.77;;;;;;;11.70;68.70;101011.34;4950854;28;20056;-74
2022/11/14 15:46:46;;;;;;;33.83;23.60;;;;;;;11.63;69.01;101005.56;4917959;28;20051;-74
2022/11/14 15:49:14;;;;;;;29.30;21.00;;;;;;;11.55;69.02;101006.00;4916035;28;20517;-74
2022/11/14 15:51:44;;;;;;;30.73;23.33;;;;;;;11.49;69.65;101006.34;4919267;28;20062;-74
2022/11/14 15:54:31;;;;;;;31.33;22.30;;;;;;;11.48;69.76;101002.00;4918483;28;20390;-74
2022/11/14 15:57:01;;;;;;;32.83;22.50;;;;;;;11.43;69.66;101009.31;4911653;28;20064;-74
2022/11/14 15:59:30;;;;;;;34.55;23.15;;;;;;;11.26;69.77;100994.47;4912997;28;20044;-74
2022/11/14 16:02:27;;;;;;;31.00;22.95;;;;;;;11.18;70.30;100994.03;4927658;28;20064;-74
2022/11/14 16:04:55;;;;;;;34.10;23.02;;;;;;;11.19;70.44;100993.09;4920981;28;20486;-74
2022/11/14 16:07:22;;;;;;;32.40;21.30;;;;;;;11.19;69.93;100994.88;4946968;28;20059;-75
2022/11/14 16:09:50;;;;;;;34.28;23.05;;;;;;;11.19;70.32;100990.47;4910768;28;20083;-74
2022/11/14 16:12:18;;;;;;;32.83;23.75;;;;;;;11.15;70.52;100996.84;4917033;28;20063;-74
2022/11/14 16:14:45;;;;;;;30.13;21.83;;;;;;;11.05;70.64;100999.13;4912631;28;20052;-73
2022/11/14 16:17:15;;;;;;;32.25;22.98;;;;;;;11.02;70.42;100994.03;4925810;28;20062;-74
2022/11/14 16:19:43;;;;;;;28.15;21.35;;;;;;;10.97;70.21;100992.59;4920741;28;20048;-73
2022/11/14 16:22:16;;;;;;;31.92;21.48;;;;;;;10.94;70.67;100996.22;4924790;28;20056;-73
2022/11/14 16:24:44;;;;;;;35.08;22.75;;;;;;;10.90;70.62;100994.72;4929955;28;20555;-73
2022/11/14 16:27:12;;;;;;;36.55;23.77;;;;;;;10.84;70.72;100998.50;4921008;28;20045;-73
2022/11/14 16:29:39;;;;;;;33.47;23.73;;;;;;;10.82;70.66;100996.91;4921879;28;20075;-74
2022/11/14 16:32:09;;;;;;;33.70;23.77;;;;;;;10.77;71.06;100999.78;4918206;28;20091;-74
2022/11/14 16:34:37;;;;;;;37.30;25.05;;;;;;;10.69;71.69;100995.88;4986849;28;20113;-74
2022/11/14 16:37:05;;;;;;;31.50;20.83;;;;;;;10.62;71.67;101006.69;4898119;28;20827;-73
2022/11/14 16:39:32;;;;;;;32.50;22.83;;;;;;;10.63;71.86;100997.06;4990443;28;20051;-74
2022/11/14 16:42:01;;;;;;;35.50;23.30;;;;;;;10.64;71.87;101004.00;4924212;28;20149;-75
2022/11/14 16:44:29;;;;;;;32.20;22.00;;;;;;;10.64;71.90;101015.38;4919671;28;20754;-76
2022/11/14 16:47:06;;;;;;;33.42;22.30;;;;;;;10.64;72.01;101014.53;4924663;28;20059;-76
2022/11/14 16:49:34;;;;;;;29.48;23.00;;;;;;;10.60;71.90;101011.22;4918264;28;20056;-76
2022/11/14 16:52:07;;;;;;;35.83;23.40;;;;;;;10.58;71.93;101002.56;4918656;28;20125;-75
2022/11/14 16:54:35;;;;;;;32.88;23.83;;;;;;;10.55;72.27;101007.13;4907910;28;22475;-76
2022/11/14 16:57:03;;;;;;;32.35;22.95;;;;;;;10.51;72.75;101003.81;4912064;28;20131;-76
2022/11/14 16:59:32;;;;;;;30.10;21.80;;;;;;;10.48;72.54;101003.09;4915266;28;20048;-75
2022/11/14 17:02:01;;;;;;;33.20;22.42;;;;;;;10.40;72.83;100998.22;4899267;28;20125;-76
2022/11/14 17:04:29;;;;;;;32.65;23.83;;;;;;;10.34;72.95;101001.19;4913608;28;20307;-76
2022/11/14 17:06:56;;;;;;;30.33;23.05;;;;;;;10.29;73.05;100993.53;4923997;28;20049;-76
2022/11/14 17:09:24;;;;;;;34.15;23.05;;;;;;;10.26;73.57;100998.94;4914716;28;20056;-76
2022/11/14 17:11:52;;;;;;;34.88;23.60;;;;;;;10.19;73.22;100987.03;4908464;28;20574;-76
2022/11/14 17:14:20;;;;;;;32.58;23.85;;;;;;;10.15;73.42;100994.22;4917309;28;20060;-76
2022/11/14 17:16:50;;;;;;;37.25;23.63;;;;;;;10.10;73.41;100988.34;4930723;28;20403;-76
2022/11/14 17:19:18;;;;;;;31.77;24.02;;;;;;;10.07;74.01;100996.38;4918064;28;20062;-74
2022/11/14 17:21:45;;;;;;;34.15;23.08;;;;;;;10.01;74.25;100995.88;4913795;28;20134;-78
2022/11/14 17:24:13;;;;;;;35.17;23.42;;;;;;;10.00;74.56;100996.78;4916970;28;20606;-77
2022/11/14 17:26:41;;;;;;;34.22;24.10;;;;;;;9.96;74.55;100990.84;4925684;28;20048;-77
2022/11/14 17:29:10;;;;;;;32.60;23.58;;;;;;;9.92;74.61;100985.81;4924735;28;20066;-79
2022/11/14 17:31:38;;;;;;;33.55;24.20;;;;;;;9.91;75.24;100987.59;4945222;28;20067;-79
2022/11/14 17:34:13;;;;;;;31.63;24.23;;;;;;;9.92;75.65;100983.19;4914700;28;20601;-80
2022/11/14 17:36:41;;;;;;;34.88;23.52;;;;;;;9.89;75.66;100989.44;4918449;28;20508;-78
2022/11/14 17:39:08;;;;;;;32.33;23.60;;;;;;;9.83;76.04;100984.47;4923908;28;20141;-77
2022/11/14 17:41:37;;;;;;;32.90;23.85;;;;;;;9.79;76.35;100993.44;4915856;28;20036;-77
2022/11/14 17:44:08;;;;;;;30.27;22.40;;;;;;;9.70;76.72;100986.03;4916949;28;20150;-77
2022/11/14 17:46:36;;;;;;;31.52;21.65;;;;;;;9.70;76.78;100980.75;4916710;28;20051;-76
2022/11/14 17:49:04;;;;;;;34.00;22.90;;;;;;;9.64;77.77;100984.56;4915998;28;20067;-75
2022/11/14 17:51:33;;;;;;;30.40;20.77;;;;;;;9.59;77.17;100979.53;4902425;28;20040;-76
2022/11/14 17:54:04;;;;;;;31.05;22.70;;;;;;;9.58;77.71;100982.22;4920397;28;20051;-76
2022/11/14 17:56:32;;;;;;;38.28;25.30;;;;;;;9.59;77.67;100973.38;4916896;28;20644;-77
2022/11/14 18:02:55;;;;;;;31.25;21.50;;;;;;;9.54;76.95;100970.13;4914952;28;20109;-77
2022/11/14 18:05:23;;;;;;;35.33;24.55;;;;;;;9.49;77.09;100972.16;4906241;28;20449;-76
